SAS4AK ESSA-EKCH
Flight info
| Callsign | SAS4AK |
|---|---|
| Flight time | 1h 0m |
| Altitude | 36000 |
| Route | PETEV N872 ELPAX DCT TOKSI N872 ERNOV |
| Aircraft | A320/M-SDE3FGHIRWY/LB1 |
Departure
| Time | 2026-05-04 17:40 |
|---|---|
| Airport | Stockholm-Arlanda Airport (ESSA) |
Arrival
| Time | 2026-05-04 18:40 |
|---|---|
| Airport | Copenhagen Kastrup Airport (EKCH) |
| Time | Latitude | Longitude | Altitude | Speed | Heading |
|---|---|---|---|---|---|
| 2026-05-04 17:16 | 59.65330 | 17.93139 | 110 ft | 0 kts | 251° |
| 2026-05-04 17:33 | 59.65340 | 17.93195 | 110 ft | 4 kts | 251° |
| 2026-05-04 17:33 | 59.65348 | 17.93236 | 111 ft | 4 kts | 252° |
| 2026-05-04 17:34 | 59.65322 | 17.93299 | 111 ft | 0 kts | 346° |
| 2026-05-04 17:35 | 59.65356 | 17.93282 | 111 ft | 10 kts | 346° |
| 2026-05-04 17:36 | 59.65437 | 17.93238 | 112 ft | 14 kts | 339° |
| 2026-05-04 17:36 | 59.65506 | 17.93099 | 112 ft | 16 kts | 267° |
| 2026-05-04 17:36 | 59.65470 | 17.92871 | 110 ft | 18 kts | 248° |
| 2026-05-04 17:36 | 59.65438 | 17.92639 | 110 ft | 17 kts | 294° |
| 2026-05-04 17:37 | 59.65561 | 17.92514 | 104 ft | 23 kts | 345° |
| 2026-05-04 17:37 | 59.65716 | 17.92437 | 104 ft | 21 kts | 347° |
| 2026-05-04 17:37 | 59.65848 | 17.92453 | 107 ft | 20 kts | 11° |
| 2026-05-04 17:37 | 59.65992 | 17.92505 | 109 ft | 22 kts | 10° |
| 2026-05-04 17:38 | 59.66148 | 17.92561 | 111 ft | 24 kts | 10° |
| 2026-05-04 17:38 | 59.66308 | 17.92618 | 114 ft | 22 kts | 10° |
| 2026-05-04 17:38 | 59.66457 | 17.92655 | 121 ft | 22 kts | 351° |
| 2026-05-04 17:38 | 59.66589 | 17.92563 | 124 ft | 17 kts | 330° |
| 2026-05-04 17:39 | 59.66550 | 17.92344 | 123 ft | 0 kts | 190° |
| 2026-05-04 17:39 | 59.66547 | 17.92342 | 123 ft | 2 kts | 190° |
| 2026-05-04 17:39 | 59.66447 | 17.92306 | 119 ft | 45 kts | 191° |
| 2026-05-04 17:40 | 59.65901 | 17.92104 | 115 ft | 111 kts | 190° |
| 2026-05-04 17:40 | 59.64966 | 17.91771 | 129 ft | 157 kts | 193° |
| 2026-05-04 17:40 | 59.63916 | 17.91409 | 756 ft | 153 kts | 194° |
| 2026-05-04 17:40 | 59.62861 | 17.91017 | 1376 ft | 155 kts | 197° |
| 2026-05-04 17:41 | 59.61760 | 17.90525 | 1721 ft | 171 kts | 210° |
| 2026-05-04 17:41 | 59.60921 | 17.88872 | 1993 ft | 181 kts | 244° |
| 2026-05-04 17:41 | 59.60235 | 17.86588 | 2407 ft | 202 kts | 242° |
| 2026-05-04 17:41 | 59.59498 | 17.84201 | 3220 ft | 205 kts | 242° |
| 2026-05-04 17:42 | 59.58740 | 17.81776 | 4074 ft | 209 kts | 243° |
| 2026-05-04 17:42 | 59.58006 | 17.79167 | 4652 ft | 229 kts | 246° |
| 2026-05-04 17:42 | 59.57255 | 17.76260 | 5282 ft | 243 kts | 247° |
| 2026-05-04 17:42 | 59.56382 | 17.73346 | 6159 ft | 253 kts | 234° |
| 2026-05-04 17:43 | 59.55175 | 17.70754 | 7050 ft | 258 kts | 231° |
| 2026-05-04 17:43 | 59.53931 | 17.68186 | 7955 ft | 260 kts | 230° |
| 2026-05-04 17:43 | 59.52666 | 17.65602 | 8872 ft | 263 kts | 230° |
| 2026-05-04 17:43 | 59.51386 | 17.62992 | 9750 ft | 266 kts | 230° |
| 2026-05-04 17:44 | 59.50052 | 17.60272 | 10121 ft | 288 kts | 230° |
| 2026-05-04 17:44 | 59.48604 | 17.57317 | 10370 ft | 310 kts | 229° |
| 2026-05-04 17:44 | 59.47085 | 17.54227 | 10960 ft | 317 kts | 229° |
| 2026-05-04 17:44 | 59.45541 | 17.51091 | 11740 ft | 320 kts | 230° |
| 2026-05-04 17:45 | 59.44010 | 17.47986 | 12514 ft | 322 kts | 230° |
| 2026-05-04 17:45 | 59.42449 | 17.44824 | 13313 ft | 324 kts | 230° |
| 2026-05-04 17:45 | 59.40856 | 17.41604 | 14047 ft | 325 kts | 230° |
| 2026-05-04 17:45 | 59.39275 | 17.38410 | 14750 ft | 327 kts | 230° |
| 2026-05-04 17:46 | 59.37686 | 17.35205 | 15419 ft | 328 kts | 230° |
| 2026-05-04 17:46 | 59.36087 | 17.31981 | 16100 ft | 330 kts | 230° |
| 2026-05-04 17:46 | 59.34503 | 17.28786 | 16762 ft | 332 kts | 230° |
| 2026-05-04 17:46 | 59.32884 | 17.25525 | 17457 ft | 334 kts | 230° |
| 2026-05-04 17:47 | 59.31256 | 17.22258 | 18089 ft | 337 kts | 230° |
| 2026-05-04 17:47 | 59.29607 | 17.18953 | 18650 ft | 341 kts | 230° |
| 2026-05-04 17:47 | 59.27941 | 17.15612 | 19253 ft | 344 kts | 231° |
| 2026-05-04 17:47 | 59.26267 | 17.12259 | 19877 ft | 346 kts | 231° |
| 2026-05-04 17:48 | 59.25124 | 17.09978 | 20300 ft | 348 kts | 231° |
| 2026-05-04 17:48 | 59.23442 | 17.06632 | 20892 ft | 351 kts | 231° |
| 2026-05-04 17:48 | 59.21724 | 17.03218 | 21470 ft | 354 kts | 231° |
| 2026-05-04 17:48 | 59.19921 | 16.99906 | 22023 ft | 360 kts | 226° |
| 2026-05-04 17:49 | 59.17991 | 16.96764 | 22571 ft | 362 kts | 226° |
| 2026-05-04 17:49 | 59.16050 | 16.93603 | 23108 ft | 365 kts | 226° |
| 2026-05-04 17:49 | 59.14091 | 16.90418 | 23573 ft | 368 kts | 226° |
| 2026-05-04 17:49 | 59.12116 | 16.87215 | 24006 ft | 371 kts | 226° |
| 2026-05-04 17:50 | 59.10126 | 16.83990 | 24419 ft | 373 kts | 226° |
| 2026-05-04 17:50 | 59.08127 | 16.80753 | 24834 ft | 375 kts | 226° |
| 2026-05-04 17:50 | 59.06113 | 16.77496 | 25217 ft | 378 kts | 226° |
| 2026-05-04 17:50 | 59.04080 | 16.74211 | 25577 ft | 382 kts | 226° |
| 2026-05-04 17:51 | 59.02029 | 16.70905 | 25954 ft | 385 kts | 226° |
| 2026-05-04 17:51 | 58.99960 | 16.67586 | 26339 ft | 387 kts | 226° |
| 2026-05-04 17:51 | 58.97879 | 16.64257 | 26738 ft | 390 kts | 226° |
| 2026-05-04 17:51 | 58.95777 | 16.60892 | 27118 ft | 392 kts | 226° |
| 2026-05-04 17:52 | 58.93661 | 16.57505 | 27496 ft | 395 kts | 225° |
| 2026-05-04 17:52 | 58.91534 | 16.54105 | 27870 ft | 398 kts | 225° |
| 2026-05-04 17:52 | 58.89394 | 16.50686 | 28235 ft | 400 kts | 225° |
| 2026-05-04 17:52 | 58.87238 | 16.47249 | 28604 ft | 403 kts | 225° |
| 2026-05-04 17:53 | 58.85071 | 16.43804 | 28954 ft | 405 kts | 225° |
| 2026-05-04 17:53 | 58.82884 | 16.40340 | 29233 ft | 408 kts | 225° |
| 2026-05-04 17:53 | 58.80681 | 16.36848 | 29536 ft | 411 kts | 225° |
| 2026-05-04 17:53 | 58.78461 | 16.33339 | 29855 ft | 414 kts | 225° |
| 2026-05-04 17:54 | 58.76251 | 16.29855 | 30175 ft | 415 kts | 224° |
| 2026-05-04 17:54 | 58.74015 | 16.26344 | 30595 ft | 414 kts | 224° |
| 2026-05-04 17:54 | 58.71786 | 16.22851 | 31027 ft | 413 kts | 225° |
| 2026-05-04 17:54 | 58.69561 | 16.19364 | 31460 ft | 412 kts | 225° |
| 2026-05-04 17:55 | 58.67345 | 16.15889 | 31898 ft | 411 kts | 225° |
| 2026-05-04 17:55 | 58.65133 | 16.12428 | 32329 ft | 410 kts | 225° |
| 2026-05-04 17:55 | 58.62920 | 16.08972 | 32763 ft | 409 kts | 225° |
| 2026-05-04 17:55 | 58.60717 | 16.05536 | 33202 ft | 408 kts | 225° |
| 2026-05-04 17:56 | 58.58519 | 16.02115 | 33593 ft | 407 kts | 225° |
| 2026-05-04 17:56 | 58.56318 | 15.98697 | 33955 ft | 407 kts | 225° |
| 2026-05-04 17:56 | 58.54113 | 15.95279 | 34287 ft | 408 kts | 225° |
| 2026-05-04 17:56 | 58.51907 | 15.91858 | 34631 ft | 408 kts | 224° |
| 2026-05-04 17:57 | 58.49700 | 15.88444 | 34951 ft | 408 kts | 224° |
| 2026-05-04 17:57 | 58.47488 | 15.85031 | 35260 ft | 409 kts | 224° |
| 2026-05-04 17:57 | 58.45271 | 15.81616 | 35564 ft | 409 kts | 224° |
| 2026-05-04 17:57 | 58.43053 | 15.78203 | 35747 ft | 410 kts | 224° |
| 2026-05-04 17:58 | 58.38616 | 15.71386 | 35783 ft | 412 kts | 224° |
| 2026-05-04 17:58 | 58.34139 | 15.64553 | 35769 ft | 412 kts | 224° |
| 2026-05-04 17:59 | 58.29651 | 15.57702 | 35790 ft | 414 kts | 224° |
| 2026-05-04 18:00 | 58.22911 | 15.47438 | 35792 ft | 414 kts | 224° |
| 2026-05-04 18:00 | 58.18403 | 15.40643 | 35800 ft | 414 kts | 223° |
| 2026-05-04 18:01 | 58.13919 | 15.33909 | 35804 ft | 414 kts | 223° |
| 2026-05-04 18:01 | 58.09406 | 15.27128 | 35785 ft | 414 kts | 223° |
| 2026-05-04 18:02 | 58.02622 | 15.16970 | 35794 ft | 415 kts | 223° |
| 2026-05-04 18:02 | 57.98084 | 15.10215 | 35800 ft | 416 kts | 223° |
| 2026-05-04 18:03 | 57.93533 | 15.03477 | 35810 ft | 416 kts | 223° |
| 2026-05-04 18:03 | 57.88988 | 14.96750 | 35817 ft | 416 kts | 223° |
| 2026-05-04 18:04 | 57.84429 | 14.90029 | 35823 ft | 416 kts | 223° |
| 2026-05-04 18:05 | 57.77593 | 14.79986 | 35833 ft | 416 kts | 223° |
| 2026-05-04 18:05 | 57.73053 | 14.73351 | 35834 ft | 416 kts | 223° |
| 2026-05-04 18:06 | 57.66185 | 14.63352 | 35856 ft | 416 kts | 223° |
| 2026-05-04 18:06 | 57.61614 | 14.56714 | 35826 ft | 416 kts | 223° |
| 2026-05-04 18:07 | 57.57042 | 14.50108 | 35840 ft | 416 kts | 222° |
| 2026-05-04 18:07 | 57.52485 | 14.43549 | 35862 ft | 416 kts | 222° |
| 2026-05-04 18:08 | 57.47902 | 14.36965 | 35862 ft | 416 kts | 222° |
| 2026-05-04 18:08 | 57.43314 | 14.30400 | 35875 ft | 416 kts | 222° |
| 2026-05-04 18:09 | 57.34127 | 14.17301 | 35847 ft | 417 kts | 222° |
| 2026-05-04 18:10 | 57.29517 | 14.10766 | 35838 ft | 417 kts | 222° |
| 2026-05-04 18:10 | 57.27209 | 14.07505 | 35584 ft | 417 kts | 222° |
| 2026-05-04 18:10 | 57.24902 | 14.04252 | 35344 ft | 417 kts | 222° |
| 2026-05-04 18:11 | 57.22594 | 14.01002 | 35097 ft | 416 kts | 222° |
| 2026-05-04 18:11 | 57.20305 | 13.97781 | 34693 ft | 414 kts | 222° |
| 2026-05-04 18:11 | 57.18005 | 13.94544 | 33890 ft | 411 kts | 222° |
| 2026-05-04 18:11 | 57.15769 | 13.91410 | 33237 ft | 398 kts | 222° |
| 2026-05-04 18:12 | 57.13585 | 13.88359 | 32367 ft | 391 kts | 221° |
| 2026-05-04 18:12 | 57.11459 | 13.85386 | 31504 ft | 386 kts | 221° |
| 2026-05-04 18:12 | 57.09306 | 13.82381 | 30770 ft | 380 kts | 221° |
| 2026-05-04 18:12 | 57.07222 | 13.79477 | 30348 ft | 383 kts | 221° |
| 2026-05-04 18:13 | 57.05110 | 13.76533 | 29893 ft | 380 kts | 221° |
| 2026-05-04 18:13 | 57.03008 | 13.73608 | 29425 ft | 377 kts | 221° |
| 2026-05-04 18:13 | 56.98848 | 13.67841 | 28582 ft | 372 kts | 221° |
| 2026-05-04 18:14 | 56.96789 | 13.64993 | 28177 ft | 370 kts | 221° |
| 2026-05-04 18:14 | 56.94743 | 13.62164 | 27785 ft | 367 kts | 221° |
| 2026-05-04 18:14 | 56.92712 | 13.59359 | 27399 ft | 364 kts | 221° |
| 2026-05-04 18:15 | 56.88692 | 13.53812 | 26636 ft | 361 kts | 221° |
| 2026-05-04 18:15 | 56.84688 | 13.48304 | 25896 ft | 359 kts | 221° |
| 2026-05-04 18:15 | 56.82697 | 13.45575 | 25512 ft | 357 kts | 221° |
| 2026-05-04 18:16 | 56.80738 | 13.42900 | 25131 ft | 355 kts | 221° |
| 2026-05-04 18:16 | 56.78763 | 13.40209 | 24745 ft | 354 kts | 221° |
| 2026-05-04 18:16 | 56.76796 | 13.37520 | 24351 ft | 352 kts | 221° |
| 2026-05-04 18:17 | 56.72898 | 13.32194 | 23550 ft | 349 kts | 221° |
| 2026-05-04 18:17 | 56.70960 | 13.29559 | 23090 ft | 347 kts | 221° |
| 2026-05-04 18:17 | 56.67122 | 13.24353 | 22242 ft | 341 kts | 221° |
| 2026-05-04 18:18 | 56.65228 | 13.21789 | 21854 ft | 338 kts | 221° |
| 2026-05-04 18:18 | 56.63345 | 13.19244 | 21438 ft | 336 kts | 221° |
| 2026-05-04 18:18 | 56.61477 | 13.16725 | 21030 ft | 333 kts | 221° |
| 2026-05-04 18:18 | 56.59615 | 13.14215 | 20616 ft | 331 kts | 221° |
| 2026-05-04 18:19 | 56.55965 | 13.09298 | 19821 ft | 327 kts | 221° |
| 2026-05-04 18:19 | 56.54148 | 13.06860 | 19408 ft | 324 kts | 221° |
| 2026-05-04 18:19 | 56.52340 | 13.04437 | 19010 ft | 322 kts | 221° |
| 2026-05-04 18:20 | 56.50545 | 13.02028 | 18610 ft | 320 kts | 221° |
| 2026-05-04 18:20 | 56.48758 | 12.99634 | 18212 ft | 318 kts | 221° |
| 2026-05-04 18:20 | 56.47017 | 12.97315 | 17835 ft | 304 kts | 221° |
| 2026-05-04 18:20 | 56.45332 | 12.95070 | 17400 ft | 300 kts | 221° |
| 2026-05-04 18:21 | 56.43651 | 12.92822 | 17023 ft | 300 kts | 221° |
| 2026-05-04 18:21 | 56.41980 | 12.90582 | 16635 ft | 298 kts | 221° |
| 2026-05-04 18:21 | 56.40321 | 12.88364 | 16265 ft | 296 kts | 221° |
| 2026-05-04 18:21 | 56.38692 | 12.86188 | 15901 ft | 294 kts | 221° |
| 2026-05-04 18:22 | 56.37042 | 12.83990 | 15527 ft | 293 kts | 221° |
| 2026-05-04 18:22 | 56.35407 | 12.81819 | 15143 ft | 292 kts | 221° |
| 2026-05-04 18:22 | 56.33776 | 12.79651 | 14781 ft | 291 kts | 221° |
| 2026-05-04 18:22 | 56.32150 | 12.77495 | 14417 ft | 290 kts | 221° |
| 2026-05-04 18:23 | 56.30528 | 12.75346 | 14053 ft | 289 kts | 221° |
| 2026-05-04 18:23 | 56.28909 | 12.73205 | 13680 ft | 288 kts | 221° |
| 2026-05-04 18:23 | 56.27313 | 12.71097 | 13290 ft | 287 kts | 221° |
| 2026-05-04 18:23 | 56.25710 | 12.68987 | 12929 ft | 284 kts | 221° |
| 2026-05-04 18:24 | 56.24119 | 12.66895 | 12576 ft | 282 kts | 221° |
| 2026-05-04 18:24 | 56.22538 | 12.64819 | 12208 ft | 280 kts | 221° |
| 2026-05-04 18:24 | 56.20966 | 12.62756 | 11859 ft | 279 kts | 221° |
| 2026-05-04 18:24 | 56.19408 | 12.60707 | 11482 ft | 277 kts | 221° |
| 2026-05-04 18:25 | 56.17852 | 12.58668 | 11143 ft | 277 kts | 219° |
| 2026-05-04 18:25 | 56.16134 | 12.57073 | 10825 ft | 281 kts | 204° |
| 2026-05-04 18:25 | 56.14238 | 12.56148 | 10659 ft | 283 kts | 199° |
| 2026-05-04 18:25 | 56.12328 | 12.55260 | 10465 ft | 283 kts | 199° |
| 2026-05-04 18:26 | 56.10422 | 12.54366 | 10270 ft | 283 kts | 199° |
| 2026-05-04 18:26 | 56.08541 | 12.53482 | 10074 ft | 282 kts | 200° |
| 2026-05-04 18:26 | 56.06645 | 12.52587 | 9861 ft | 282 kts | 200° |
| 2026-05-04 18:26 | 56.04753 | 12.51696 | 9650 ft | 281 kts | 199° |
| 2026-05-04 18:27 | 56.02857 | 12.50808 | 9328 ft | 280 kts | 199° |
| 2026-05-04 18:27 | 56.00980 | 12.49929 | 9057 ft | 278 kts | 199° |
| 2026-05-04 18:27 | 55.99107 | 12.49054 | 8794 ft | 277 kts | 199° |
| 2026-05-04 18:27 | 55.97243 | 12.48186 | 8534 ft | 276 kts | 199° |
| 2026-05-04 18:28 | 55.95388 | 12.47323 | 8277 ft | 275 kts | 199° |
| 2026-05-04 18:28 | 55.93535 | 12.46461 | 8002 ft | 274 kts | 199° |
| 2026-05-04 18:28 | 55.91697 | 12.45597 | 7762 ft | 273 kts | 199° |
| 2026-05-04 18:28 | 55.89867 | 12.44730 | 7535 ft | 272 kts | 199° |
| 2026-05-04 18:29 | 55.88038 | 12.43865 | 7311 ft | 271 kts | 199° |
| 2026-05-04 18:29 | 55.86218 | 12.43009 | 7088 ft | 270 kts | 199° |
| 2026-05-04 18:29 | 55.84404 | 12.42156 | 6860 ft | 269 kts | 199° |
| 2026-05-04 18:29 | 55.82593 | 12.41305 | 6643 ft | 268 kts | 199° |
| 2026-05-04 18:30 | 55.79035 | 12.39707 | 6184 ft | 254 kts | 191° |
| 2026-05-04 18:30 | 55.77281 | 12.39789 | 5955 ft | 255 kts | 172° |
| 2026-05-04 18:30 | 55.75653 | 12.40941 | 5718 ft | 259 kts | 149° |
| 2026-05-04 18:31 | 55.74377 | 12.43264 | 5489 ft | 265 kts | 121° |
| 2026-05-04 18:31 | 55.73821 | 12.46303 | 5261 ft | 264 kts | 93° |
| 2026-05-04 18:31 | 55.73929 | 12.49548 | 5034 ft | 264 kts | 83° |
| 2026-05-04 18:31 | 55.74125 | 12.52789 | 4805 ft | 264 kts | 83° |
| 2026-05-04 18:32 | 55.74321 | 12.56017 | 4578 ft | 262 kts | 83° |
| 2026-05-04 18:32 | 55.74516 | 12.59219 | 4343 ft | 261 kts | 81° |
| 2026-05-04 18:32 | 55.74868 | 12.62350 | 4100 ft | 256 kts | 65° |
| 2026-05-04 18:32 | 55.75691 | 12.65115 | 3998 ft | 253 kts | 56° |
| 2026-05-04 18:33 | 55.76604 | 12.67784 | 4006 ft | 254 kts | 55° |
| 2026-05-04 18:33 | 55.77526 | 12.70440 | 4000 ft | 247 kts | 55° |
| 2026-05-04 18:33 | 55.78397 | 12.72957 | 4003 ft | 231 kts | 55° |
| 2026-05-04 18:33 | 55.79215 | 12.75345 | 4006 ft | 224 kts | 56° |
| 2026-05-04 18:34 | 55.80026 | 12.77706 | 4008 ft | 224 kts | 55° |
| 2026-05-04 18:34 | 55.80836 | 12.80065 | 4008 ft | 223 kts | 56° |
| 2026-05-04 18:34 | 55.81354 | 12.82622 | 4007 ft | 226 kts | 86° |
| 2026-05-04 18:34 | 55.81017 | 12.85327 | 4009 ft | 227 kts | 122° |
| 2026-05-04 18:35 | 55.79983 | 12.87391 | 4006 ft | 223 kts | 153° |
| 2026-05-04 18:35 | 55.78542 | 12.88218 | 4014 ft | 216 kts | 182° |
| 2026-05-04 18:35 | 55.77139 | 12.87823 | 4018 ft | 193 kts | 208° |
| 2026-05-04 18:35 | 55.76046 | 12.86567 | 3903 ft | 185 kts | 225° |
| 2026-05-04 18:36 | 55.75091 | 12.85063 | 3662 ft | 183 kts | 226° |
| 2026-05-04 18:36 | 55.74137 | 12.83557 | 3433 ft | 183 kts | 226° |
| 2026-05-04 18:36 | 55.73186 | 12.82068 | 3183 ft | 181 kts | 226° |
| 2026-05-04 18:36 | 55.72247 | 12.80601 | 2937 ft | 178 kts | 226° |
| 2026-05-04 18:37 | 55.71324 | 12.79160 | 2691 ft | 174 kts | 226° |
| 2026-05-04 18:37 | 55.70434 | 12.77774 | 2461 ft | 167 kts | 226° |
| 2026-05-04 18:37 | 55.69569 | 12.76425 | 2235 ft | 164 kts | 226° |
| 2026-05-04 18:37 | 55.68717 | 12.75097 | 2016 ft | 161 kts | 226° |
| 2026-05-04 18:38 | 55.67903 | 12.73834 | 1805 ft | 147 kts | 226° |
| 2026-05-04 18:38 | 55.67123 | 12.72627 | 1570 ft | 152 kts | 226° |
| 2026-05-04 18:38 | 55.66327 | 12.71382 | 1361 ft | 152 kts | 226° |
| 2026-05-04 18:38 | 55.65560 | 12.70190 | 1173 ft | 140 kts | 226° |
| 2026-05-04 18:39 | 55.64858 | 12.69100 | 998 ft | 134 kts | 225° |
| 2026-05-04 18:39 | 55.64161 | 12.68015 | 806 ft | 133 kts | 225° |
| 2026-05-04 18:39 | 55.63462 | 12.66929 | 637 ft | 134 kts | 226° |
| 2026-05-04 18:39 | 55.62762 | 12.65842 | 451 ft | 134 kts | 225° |
| 2026-05-04 18:40 | 55.62063 | 12.64759 | 279 ft | 133 kts | 225° |
| 2026-05-04 18:40 | 55.61363 | 12.63675 | 92 ft | 134 kts | 225° |
| 2026-05-04 18:40 | 55.60701 | 12.62642 | 20 ft | 110 kts | 223° |
| 2026-05-04 18:40 | 55.60338 | 12.62078 | 18 ft | 45 kts | 222° |
| 2026-05-04 18:41 | 55.60105 | 12.61707 | 19 ft | 45 kts | 222° |
| 2026-05-04 18:41 | 55.60034 | 12.61492 | 19 ft | 13 kts | 297° |
| 2026-05-04 18:41 | 55.60077 | 12.61437 | 18 ft | 12 kts | 6° |
| 2026-05-04 18:41 | 55.60140 | 12.61524 | 18 ft | 12 kts | 41° |
| 2026-05-04 18:42 | 55.60213 | 12.61637 | 18 ft | 16 kts | 41° |
| 2026-05-04 18:42 | 55.60341 | 12.61833 | 18 ft | 21 kts | 41° |
| 2026-05-04 18:42 | 55.60419 | 12.61952 | 17 ft | 23 kts | 40° |
| 2026-05-04 18:42 | 55.60549 | 12.62152 | 18 ft | 26 kts | 41° |
| 2026-05-04 18:43 | 55.60667 | 12.62328 | 18 ft | 23 kts | 33° |
| 2026-05-04 18:43 | 55.60817 | 12.62449 | 18 ft | 24 kts | 39° |
| 2026-05-04 18:43 | 55.60934 | 12.62631 | 19 ft | 21 kts | 40° |
| 2026-05-04 18:43 | 55.61054 | 12.62811 | 17 ft | 24 kts | 41° |
| 2026-05-04 18:44 | 55.61179 | 12.63004 | 17 ft | 25 kts | 40° |
| 2026-05-04 18:44 | 55.61254 | 12.63117 | 17 ft | 22 kts | 40° |
| 2026-05-04 18:44 | 55.61401 | 12.63348 | 17 ft | 18 kts | 41° |
| 2026-05-04 18:44 | 55.61487 | 12.63480 | 17 ft | 15 kts | 41° |
| 2026-05-04 18:45 | 55.61547 | 12.63575 | 17 ft | 5 kts | 41° |
| 2026-05-04 18:45 | 55.61552 | 12.63582 | 17 ft | 0 kts | 41° |
| 2026-05-04 18:45 | 55.61554 | 12.63584 | 17 ft | 3 kts | 41° |
| 2026-05-04 18:45 | 55.61618 | 12.63683 | 17 ft | 18 kts | 41° |
| 2026-05-04 18:46 | 55.61712 | 12.63828 | 19 ft | 16 kts | 41° |
| 2026-05-04 18:46 | 55.61775 | 12.63927 | 17 ft | 6 kts | 41° |
| 2026-05-04 18:46 | 55.61787 | 12.63945 | 17 ft | 0 kts | 41° |
| 2026-05-04 18:46 | 55.61788 | 12.63947 | 17 ft | 0 kts | 41° |
| 2026-05-04 18:47 | 55.61799 | 12.63964 | 17 ft | 6 kts | 41° |
| 2026-05-04 18:47 | 55.61857 | 12.64053 | 19 ft | 14 kts | 38° |
| 2026-05-04 18:47 | 55.61928 | 12.64192 | 20 ft | 18 kts | 76° |
| 2026-05-04 18:47 | 55.61951 | 12.64406 | 17 ft | 17 kts | 76° |
| 2026-05-04 18:48 | 55.62025 | 12.64563 | 18 ft | 14 kts | 32° |
| 2026-05-04 18:48 | 55.62115 | 12.64665 | 20 ft | 17 kts | 33° |
| 2026-05-04 18:48 | 55.62194 | 12.64758 | 18 ft | 9 kts | 32° |
| 2026-05-04 18:48 | 55.62213 | 12.64779 | 18 ft | 0 kts | 32° |
| 2026-05-04 18:49 | 55.62215 | 12.64781 | 17 ft | 0 kts | 32° |
| 2026-05-04 18:49 | 55.62261 | 12.64792 | 17 ft | 13 kts | 351° |
| 2026-05-04 18:49 | 55.62268 | 12.64790 | 17 ft | 0 kts | 353° |
| 2026-05-04 18:50 | 55.62300 | 12.64791 | 18 ft | 9 kts | 2° |
| 2026-05-04 18:51 | 55.62373 | 12.64793 | 17 ft | 12 kts | 337° |
| 2026-05-04 18:51 | 55.62418 | 12.64697 | 17 ft | 10 kts | 312° |
| 2026-05-04 18:51 | 55.62491 | 12.64659 | 17 ft | 10 kts | 354° |
| 2026-05-04 18:51 | 55.62556 | 12.64655 | 17 ft | 9 kts | 360° |
| 2026-05-04 18:52 | 55.62613 | 12.64660 | 17 ft | 6 kts | 9° |
| 2026-05-04 18:52 | 55.62635 | 12.64629 | 19 ft | 1 kts | 275° |
| 2026-05-04 18:52 | 55.62640 | 12.64595 | 17 ft | 5 kts | 282° |
| 2026-05-04 18:52 | 55.62644 | 12.64565 | 17 ft | 0 kts | 282° |
| 2026-05-04 18:53 | 55.62644 | 12.64563 | 17 ft | 0 kts | 282° |